sensor_id;sensor_type;location;lat;lon;timestamp;P1;durP1;ratioP1;P2;durP2;ratioP2
19291;SDS011;9779;51.756;7.450;2022-10-31T00:00:26;17.57;;;9.23;;
19291;SDS011;9779;51.756;7.450;2022-10-31T00:02:52;21.93;;;9.73;;
19291;SDS011;9779;51.756;7.450;2022-10-31T00:05:17;14.80;;;9.27;;
19291;SDS011;9779;51.756;7.450;2022-10-31T00:07:43;14.80;;;8.83;;
19291;SDS011;9779;51.756;7.450;2022-10-31T00:10:08;13.60;;;8.07;;
19291;SDS011;9779;51.756;7.450;2022-10-31T00:12:34;18.87;;;9.07;;
19291;SDS011;9779;51.756;7.450;2022-10-31T00:14:59;13.10;;;9.60;;
19291;SDS011;9779;51.756;7.450;2022-10-31T00:17:25;12.10;;;9.50;;
19291;SDS011;9779;51.756;7.450;2022-10-31T00:19:50;13.50;;;9.27;;
19291;SDS011;9779;51.756;7.450;2022-10-31T00:22:16;18.33;;;9.83;;
19291;SDS011;9779;51.756;7.450;2022-10-31T00:24:41;17.60;;;10.30;;
19291;SDS011;9779;51.756;7.450;2022-10-31T00:27:07;16.00;;;9.60;;
19291;SDS011;9779;51.756;7.450;2022-10-31T00:29:32;15.70;;;9.87;;
19291;SDS011;9779;51.756;7.450;2022-10-31T00:31:58;15.97;;;9.33;;
19291;SDS011;9779;51.756;7.450;2022-10-31T00:34:24;17.17;;;9.13;;
19291;SDS011;9779;51.756;7.450;2022-10-31T00:36:49;14.53;;;9.23;;
19291;SDS011;9779;51.756;7.450;2022-10-31T00:39:15;26.73;;;10.27;;
19291;SDS011;9779;51.756;7.450;2022-10-31T00:41:40;13.87;;;8.73;;
19291;SDS011;9779;51.756;7.450;2022-10-31T00:44:06;16.70;;;9.73;;
19291;SDS011;9779;51.756;7.450;2022-10-31T00:46:32;18.70;;;9.53;;
19291;SDS011;9779;51.756;7.450;2022-10-31T00:48:57;19.17;;;10.67;;
19291;SDS011;9779;51.756;7.450;2022-10-31T00:51:23;18.03;;;10.17;;
19291;SDS011;9779;51.756;7.450;2022-10-31T00:53:48;16.20;;;9.97;;
19291;SDS011;9779;51.756;7.450;2022-10-31T00:56:14;12.53;;;9.17;;
19291;SDS011;9779;51.756;7.450;2022-10-31T00:58:39;19.53;;;9.23;;
19291;SDS011;9779;51.756;7.450;2022-10-31T01:01:05;11.57;;;8.53;;
19291;SDS011;9779;51.756;7.450;2022-10-31T01:03:31;15.73;;;9.17;;
19291;SDS011;9779;51.756;7.450;2022-10-31T01:06:05;18.23;;;9.83;;
19291;SDS011;9779;51.756;7.450;2022-10-31T01:08:33;19.60;;;9.10;;
19291;SDS011;9779;51.756;7.450;2022-10-31T01:11:01;16.77;;;9.27;;
19291;SDS011;9779;51.756;7.450;2022-10-31T01:13:28;15.67;;;8.83;;
19291;SDS011;9779;51.756;7.450;2022-10-31T01:15:55;17.47;;;9.87;;
19291;SDS011;9779;51.756;7.450;2022-10-31T01:18:22;17.53;;;10.70;;
19291;SDS011;9779;51.756;7.450;2022-10-31T01:20:47;19.73;;;10.07;;
19291;SDS011;9779;51.756;7.450;2022-10-31T01:23:22;13.77;;;8.87;;
19291;SDS011;9779;51.756;7.450;2022-10-31T01:25:48;17.63;;;10.33;;
19291;SDS011;9779;51.756;7.450;2022-10-31T01:28:13;20.57;;;9.73;;
19291;SDS011;9779;51.756;7.450;2022-10-31T01:30:39;20.33;;;10.10;;
19291;SDS011;9779;51.756;7.450;2022-10-31T01:33:04;16.93;;;10.07;;
19291;SDS011;9779;51.756;7.450;2022-10-31T01:35:30;19.20;;;9.93;;
19291;SDS011;9779;51.756;7.450;2022-10-31T01:37:55;13.77;;;9.87;;
19291;SDS011;9779;51.756;7.450;2022-10-31T01:40:21;12.57;;;10.20;;
19291;SDS011;9779;51.756;7.450;2022-10-31T01:42:46;17.00;;;9.43;;
19291;SDS011;9779;51.756;7.450;2022-10-31T01:45:19;13.40;;;9.57;;
19291;SDS011;9779;51.756;7.450;2022-10-31T01:47:45;12.77;;;9.07;;
19291;SDS011;9779;51.756;7.450;2022-10-31T01:50:15;16.77;;;10.27;;
19291;SDS011;9779;51.756;7.450;2022-10-31T01:52:53;18.60;;;9.23;;
19291;SDS011;9779;51.756;7.450;2022-10-31T01:55:30;15.57;;;8.60;;
19291;SDS011;9779;51.756;7.450;2022-10-31T01:58:07;15.53;;;9.07;;
19291;SDS011;9779;51.756;7.450;2022-10-31T02:00:38;16.93;;;9.70;;
19291;SDS011;9779;51.756;7.450;2022-10-31T02:03:05;10.53;;;8.43;;
19291;SDS011;9779;51.756;7.450;2022-10-31T02:05:31;16.33;;;9.40;;
19291;SDS011;9779;51.756;7.450;2022-10-31T02:07:59;13.57;;;8.60;;
19291;SDS011;9779;51.756;7.450;2022-10-31T02:10:46;14.90;;;8.27;;
19291;SDS011;9779;51.756;7.450;2022-10-31T02:13:12;9.73;;;8.20;;
19291;SDS011;9779;51.756;7.450;2022-10-31T02:15:38;13.70;;;9.23;;
19291;SDS011;9779;51.756;7.450;2022-10-31T02:18:05;10.03;;;9.13;;
19291;SDS011;9779;51.756;7.450;2022-10-31T02:20:36;10.80;;;8.27;;
19291;SDS011;9779;51.756;7.450;2022-10-31T02:32:20;11.63;;;8.83;;
19291;SDS011;9779;51.756;7.450;2022-10-31T02:35:10;12.27;;;9.37;;
19291;SDS011;9779;51.756;7.450;2022-10-31T02:40:27;12.87;;;9.33;;
19291;SDS011;9779;51.756;7.450;2022-10-31T02:43:09;13.20;;;9.07;;
19291;SDS011;9779;51.756;7.450;2022-10-31T02:45:44;10.07;;;8.43;;
19291;SDS011;9779;51.756;7.450;2022-10-31T02:48:17;19.13;;;10.07;;
19291;SDS011;9779;51.756;7.450;2022-10-31T02:50:47;13.47;;;8.27;;
19291;SDS011;9779;51.756;7.450;2022-10-31T02:53:17;9.30;;;8.10;;
19291;SDS011;9779;51.756;7.450;2022-10-31T02:55:47;10.10;;;8.30;;
19291;SDS011;9779;51.756;7.450;2022-10-31T02:58:20;11.30;;;8.40;;
19291;SDS011;9779;51.756;7.450;2022-10-31T03:03:23;16.47;;;8.83;;
19291;SDS011;9779;51.756;7.450;2022-10-31T03:11:08;9.00;;;8.03;;
19291;SDS011;9779;51.756;7.450;2022-10-31T03:16:39;17.27;;;8.63;;
19291;SDS011;9779;51.756;7.450;2022-10-31T03:19:11;14.30;;;8.20;;
19291;SDS011;9779;51.756;7.450;2022-10-31T03:22:02;19.13;;;8.57;;
19291;SDS011;9779;51.756;7.450;2022-10-31T03:24:36;9.73;;;8.17;;
19291;SDS011;9779;51.756;7.450;2022-10-31T03:27:04;9.17;;;8.37;;
19291;SDS011;9779;51.756;7.450;2022-10-31T03:29:34;14.63;;;8.10;;
19291;SDS011;9779;51.756;7.450;2022-10-31T03:32:02;18.87;;;8.00;;
19291;SDS011;9779;51.756;7.450;2022-10-31T03:34:35;9.70;;;7.60;;
19291;SDS011;9779;51.756;7.450;2022-10-31T03:37:04;13.63;;;7.60;;
19291;SDS011;9779;51.756;7.450;2022-10-31T03:39:34;7.83;;;5.43;;
19291;SDS011;9779;51.756;7.450;2022-10-31T03:42:15;5.93;;;5.37;;
19291;SDS011;9779;51.756;7.450;2022-10-31T03:44:46;5.80;;;5.20;;
19291;SDS011;9779;51.756;7.450;2022-10-31T03:47:20;5.97;;;5.40;;
19291;SDS011;9779;51.756;7.450;2022-10-31T03:49:47;6.43;;;5.80;;
19291;SDS011;9779;51.756;7.450;2022-10-31T03:52:23;6.63;;;6.10;;
19291;SDS011;9779;51.756;7.450;2022-10-31T03:55:19;9.30;;;6.33;;
19291;SDS011;9779;51.756;7.450;2022-10-31T04:00:22;5.97;;;5.43;;
19291;SDS011;9779;51.756;7.450;2022-10-31T04:02:58;5.90;;;5.50;;
19291;SDS011;9779;51.756;7.450;2022-10-31T04:05:31;7.03;;;6.53;;
19291;SDS011;9779;51.756;7.450;2022-10-31T04:07:57;6.77;;;6.17;;
19291;SDS011;9779;51.756;7.450;2022-10-31T04:10:25;7.00;;;6.40;;
19291;SDS011;9779;51.756;7.450;2022-10-31T04:12:54;6.90;;;6.20;;
19291;SDS011;9779;51.756;7.450;2022-10-31T04:15:25;6.87;;;6.37;;
19291;SDS011;9779;51.756;7.450;2022-10-31T04:17:52;7.43;;;6.67;;
19291;SDS011;9779;51.756;7.450;2022-10-31T04:20:29;6.60;;;5.70;;
19291;SDS011;9779;51.756;7.450;2022-10-31T04:22:58;6.97;;;6.37;;
19291;SDS011;9779;51.756;7.450;2022-10-31T04:25:25;8.17;;;6.53;;
19291;SDS011;9779;51.756;7.450;2022-10-31T04:27:50;7.13;;;6.57;;
19291;SDS011;9779;51.756;7.450;2022-10-31T04:30:16;7.00;;;6.40;;
19291;SDS011;9779;51.756;7.450;2022-10-31T04:32:41;8.27;;;7.13;;
19291;SDS011;9779;51.756;7.450;2022-10-31T04:35:07;6.90;;;6.40;;
19291;SDS011;9779;51.756;7.450;2022-10-31T04:37:33;10.87;;;7.03;;
19291;SDS011;9779;51.756;7.450;2022-10-31T04:39:58;7.77;;;6.90;;
19291;SDS011;9779;51.756;7.450;2022-10-31T04:42:24;8.00;;;7.30;;
19291;SDS011;9779;51.756;7.450;2022-10-31T04:44:49;7.13;;;6.33;;
19291;SDS011;9779;51.756;7.450;2022-10-31T04:47:15;6.43;;;5.87;;
19291;SDS011;9779;51.756;7.450;2022-10-31T04:49:40;7.50;;;6.37;;
19291;SDS011;9779;51.756;7.450;2022-10-31T04:52:06;6.97;;;6.00;;
19291;SDS011;9779;51.756;7.450;2022-10-31T04:54:33;5.97;;;5.47;;
19291;SDS011;9779;51.756;7.450;2022-10-31T04:56:58;7.67;;;6.50;;
19291;SDS011;9779;51.756;7.450;2022-10-31T04:59:24;8.00;;;6.27;;
19291;SDS011;9779;51.756;7.450;2022-10-31T05:01:49;7.23;;;6.63;;
19291;SDS011;9779;51.756;7.450;2022-10-31T05:04:15;6.80;;;6.20;;
19291;SDS011;9779;51.756;7.450;2022-10-31T05:06:40;9.70;;;8.90;;
19291;SDS011;9779;51.756;7.450;2022-10-31T05:09:06;10.53;;;8.33;;
19291;SDS011;9779;51.756;7.450;2022-10-31T05:11:31;8.23;;;7.50;;
19291;SDS011;9779;51.756;7.450;2022-10-31T05:13:57;7.87;;;7.27;;
19291;SDS011;9779;51.756;7.450;2022-10-31T05:16:22;6.73;;;6.10;;
19291;SDS011;9779;51.756;7.450;2022-10-31T05:18:48;9.03;;;7.00;;
19291;SDS011;9779;51.756;7.450;2022-10-31T05:21:13;7.13;;;6.17;;
19291;SDS011;9779;51.756;7.450;2022-10-31T05:23:39;7.03;;;6.33;;
19291;SDS011;9779;51.756;7.450;2022-10-31T05:26:04;6.50;;;6.00;;
19291;SDS011;9779;51.756;7.450;2022-10-31T05:28:30;6.60;;;6.03;;
19291;SDS011;9779;51.756;7.450;2022-10-31T05:30:55;6.17;;;5.77;;
19291;SDS011;9779;51.756;7.450;2022-10-31T05:33:21;8.07;;;5.93;;
19291;SDS011;9779;51.756;7.450;2022-10-31T05:35:46;6.97;;;5.60;;
19291;SDS011;9779;51.756;7.450;2022-10-31T05:38:13;5.90;;;5.53;;
19291;SDS011;9779;51.756;7.450;2022-10-31T05:40:38;6.47;;;5.97;;
19291;SDS011;9779;51.756;7.450;2022-10-31T05:43:04;8.87;;;6.20;;
19291;SDS011;9779;51.756;7.450;2022-10-31T05:45:29;7.23;;;6.70;;
19291;SDS011;9779;51.756;7.450;2022-10-31T05:47:59;7.67;;;6.87;;
19291;SDS011;9779;51.756;7.450;2022-10-31T05:50:26;7.37;;;6.47;;
19291;SDS011;9779;51.756;7.450;2022-10-31T05:53:03;7.83;;;7.03;;
19291;SDS011;9779;51.756;7.450;2022-10-31T05:55:30;10.00;;;9.10;;
19291;SDS011;9779;51.756;7.450;2022-10-31T05:57:56;11.30;;;8.97;;
19291;SDS011;9779;51.756;7.450;2022-10-31T06:00:22;9.93;;;8.93;;
19291;SDS011;9779;51.756;7.450;2022-10-31T06:02:49;7.13;;;6.63;;
19291;SDS011;9779;51.756;7.450;2022-10-31T06:05:15;7.47;;;6.97;;
19291;SDS011;9779;51.756;7.450;2022-10-31T06:07:41;6.73;;;6.20;;
19291;SDS011;9779;51.756;7.450;2022-10-31T06:10:07;13.03;;;6.20;;
19291;SDS011;9779;51.756;7.450;2022-10-31T06:12:33;8.10;;;6.87;;
19291;SDS011;9779;51.756;7.450;2022-10-31T06:15:03;8.23;;;7.60;;
19291;SDS011;9779;51.756;7.450;2022-10-31T06:17:30;7.83;;;7.27;;
19291;SDS011;9779;51.756;7.450;2022-10-31T06:19:55;7.90;;;7.07;;
19291;SDS011;9779;51.756;7.450;2022-10-31T06:22:21;10.50;;;6.73;;
19291;SDS011;9779;51.756;7.450;2022-10-31T06:24:46;6.93;;;6.20;;
19291;SDS011;9779;51.756;7.450;2022-10-31T06:27:12;8.45;;;6.90;;
19291;SDS011;9779;51.756;7.450;2022-10-31T06:29:37;7.90;;;7.23;;
19291;SDS011;9779;51.756;7.450;2022-10-31T06:32:03;11.70;;;7.03;;
19291;SDS011;9779;51.756;7.450;2022-10-31T06:34:29;7.27;;;6.77;;
19291;SDS011;9779;51.756;7.450;2022-10-31T06:36:54;10.30;;;7.37;;
19291;SDS011;9779;51.756;7.450;2022-10-31T06:39:20;6.57;;;5.93;;
19291;SDS011;9779;51.756;7.450;2022-10-31T06:41:47;7.23;;;6.50;;
19291;SDS011;9779;51.756;7.450;2022-10-31T06:44:13;10.77;;;6.77;;
19291;SDS011;9779;51.756;7.450;2022-10-31T06:46:38;7.03;;;6.43;;
19291;SDS011;9779;51.756;7.450;2022-10-31T06:49:04;7.50;;;6.97;;
19291;SDS011;9779;51.756;7.450;2022-10-31T06:51:29;9.90;;;6.50;;
19291;SDS011;9779;51.756;7.450;2022-10-31T06:53:55;8.33;;;7.53;;
19291;SDS011;9779;51.756;7.450;2022-10-31T06:56:20;11.37;;;7.67;;
19291;SDS011;9779;51.756;7.450;2022-10-31T06:58:46;8.63;;;7.63;;
19291;SDS011;9779;51.756;7.450;2022-10-31T07:01:11;7.97;;;7.37;;
19291;SDS011;9779;51.756;7.450;2022-10-31T07:03:37;7.47;;;6.70;;
19291;SDS011;9779;51.756;7.450;2022-10-31T07:06:02;10.03;;;7.43;;
19291;SDS011;9779;51.756;7.450;2022-10-31T07:08:28;8.40;;;7.40;;
19291;SDS011;9779;51.756;7.450;2022-10-31T07:10:55;8.03;;;7.23;;
19291;SDS011;9779;51.756;7.450;2022-10-31T07:13:21;9.20;;;7.73;;
19291;SDS011;9779;51.756;7.450;2022-10-31T07:15:50;8.07;;;7.47;;
19291;SDS011;9779;51.756;7.450;2022-10-31T07:18:18;10.83;;;8.47;;
19291;SDS011;9779;51.756;7.450;2022-10-31T07:20:44;8.43;;;7.63;;
19291;SDS011;9779;51.756;7.450;2022-10-31T07:23:09;9.47;;;7.90;;
19291;SDS011;9779;51.756;7.450;2022-10-31T07:25:36;8.30;;;7.27;;
19291;SDS011;9779;51.756;7.450;2022-10-31T07:28:02;10.27;;;8.07;;
19291;SDS011;9779;51.756;7.450;2022-10-31T07:30:28;12.67;;;8.03;;
19291;SDS011;9779;51.756;7.450;2022-10-31T07:32:54;20.47;;;8.53;;
19291;SDS011;9779;51.756;7.450;2022-10-31T07:35:24;8.40;;;7.60;;
19291;SDS011;9779;51.756;7.450;2022-10-31T07:37:51;10.53;;;9.00;;
19291;SDS011;9779;51.756;7.450;2022-10-31T07:40:17;8.60;;;8.00;;
19291;SDS011;9779;51.756;7.450;2022-10-31T07:42:45;16.27;;;8.10;;
19291;SDS011;9779;51.756;7.450;2022-10-31T07:45:16;9.60;;;8.33;;
19291;SDS011;9779;51.756;7.450;2022-10-31T07:47:50;13.30;;;9.00;;
19291;SDS011;9779;51.756;7.450;2022-10-31T07:50:17;8.97;;;8.13;;
19291;SDS011;9779;51.756;7.450;2022-10-31T07:52:47;9.97;;;8.37;;
19291;SDS011;9779;51.756;7.450;2022-10-31T07:55:13;10.30;;;8.80;;
19291;SDS011;9779;51.756;7.450;2022-10-31T07:57:39;19.70;;;10.93;;
19291;SDS011;9779;51.756;7.450;2022-10-31T08:00:06;10.40;;;8.63;;
19291;SDS011;9779;51.756;7.450;2022-10-31T08:02:33;4.87;;;4.37;;
19291;SDS011;9779;51.756;7.450;2022-10-31T08:04:58;5.87;;;5.23;;
19291;SDS011;9779;51.756;7.450;2022-10-31T08:07:25;6.30;;;5.10;;
19291;SDS011;9779;51.756;7.450;2022-10-31T08:09:50;5.80;;;5.30;;
19291;SDS011;9779;51.756;7.450;2022-10-31T08:12:16;6.83;;;6.13;;
19291;SDS011;9779;51.756;7.450;2022-10-31T08:14:42;9.47;;;7.00;;
19291;SDS011;9779;51.756;7.450;2022-10-31T08:17:09;6.87;;;6.27;;
19291;SDS011;9779;51.756;7.450;2022-10-31T08:19:35;8.07;;;6.50;;
19291;SDS011;9779;51.756;7.450;2022-10-31T08:22:00;10.10;;;6.70;;
19291;SDS011;9779;51.756;7.450;2022-10-31T08:24:26;8.70;;;7.97;;
19291;SDS011;9779;51.756;7.450;2022-10-31T08:26:51;8.03;;;7.23;;
19291;SDS011;9779;51.756;7.450;2022-10-31T08:29:17;11.00;;;9.13;;
19291;SDS011;9779;51.756;7.450;2022-10-31T08:31:43;11.07;;;9.50;;
19291;SDS011;9779;51.756;7.450;2022-10-31T08:34:08;9.77;;;8.90;;
19291;SDS011;9779;51.756;7.450;2022-10-31T08:36:34;10.60;;;9.63;;
19291;SDS011;9779;51.756;7.450;2022-10-31T08:39:00;10.90;;;9.17;;
19291;SDS011;9779;51.756;7.450;2022-10-31T08:41:25;10.97;;;9.87;;
19291;SDS011;9779;51.756;7.450;2022-10-31T08:43:51;11.77;;;9.87;;
19291;SDS011;9779;51.756;7.450;2022-10-31T08:46:17;14.53;;;10.30;;
19291;SDS011;9779;51.756;7.450;2022-10-31T08:48:43;16.30;;;9.40;;
19291;SDS011;9779;51.756;7.450;2022-10-31T08:51:09;9.63;;;7.83;;
19291;SDS011;9779;51.756;7.450;2022-10-31T08:53:35;13.50;;;9.90;;
19291;SDS011;9779;51.756;7.450;2022-10-31T08:56:01;13.87;;;10.77;;
19291;SDS011;9779;51.756;7.450;2022-10-31T08:58:27;11.87;;;10.53;;
19291;SDS011;9779;51.756;7.450;2022-10-31T09:00:53;11.43;;;10.17;;
19291;SDS011;9779;51.756;7.450;2022-10-31T09:03:22;12.83;;;10.40;;
19291;SDS011;9779;51.756;7.450;2022-10-31T09:05:56;12.70;;;10.70;;
19291;SDS011;9779;51.756;7.450;2022-10-31T09:08:23;11.77;;;10.00;;
19291;SDS011;9779;51.756;7.450;2022-10-31T09:10:49;12.83;;;10.17;;
19291;SDS011;9779;51.756;7.450;2022-10-31T09:13:15;14.30;;;11.20;;
19291;SDS011;9779;51.756;7.450;2022-10-31T09:15:44;12.27;;;9.80;;
19291;SDS011;9779;51.756;7.450;2022-10-31T09:18:12;14.40;;;11.23;;
19291;SDS011;9779;51.756;7.450;2022-10-31T09:20:39;17.27;;;11.20;;
19291;SDS011;9779;51.756;7.450;2022-10-31T09:23:06;20.03;;;11.97;;
19291;SDS011;9779;51.756;7.450;2022-10-31T09:25:37;20.63;;;12.10;;
19291;SDS011;9779;51.756;7.450;2022-10-31T09:28:03;17.10;;;10.87;;
19291;SDS011;9779;51.756;7.450;2022-10-31T09:30:31;12.57;;;11.37;;
19291;SDS011;9779;51.756;7.450;2022-10-31T09:32:59;12.13;;;10.97;;
19291;SDS011;9779;51.756;7.450;2022-10-31T09:35:27;19.13;;;9.23;;
19291;SDS011;9779;51.756;7.450;2022-10-31T09:37:56;20.80;;;11.77;;
19291;SDS011;9779;51.756;7.450;2022-10-31T09:40:36;15.67;;;11.17;;
19291;SDS011;9779;51.756;7.450;2022-10-31T09:45:48;17.80;;;11.00;;
19291;SDS011;9779;51.756;7.450;2022-10-31T09:48:20;16.70;;;11.47;;
19291;SDS011;9779;51.756;7.450;2022-10-31T09:50:55;18.47;;;12.03;;
19291;SDS011;9779;51.756;7.450;2022-10-31T09:56:22;15.03;;;12.20;;
19291;SDS011;9779;51.756;7.450;2022-10-31T09:58:56;20.10;;;13.33;;
19291;SDS011;9779;51.756;7.450;2022-10-31T10:04:30;18.80;;;12.57;;
19291;SDS011;9779;51.756;7.450;2022-10-31T10:07:02;22.53;;;13.13;;
19291;SDS011;9779;51.756;7.450;2022-10-31T10:09:37;18.07;;;12.97;;
19291;SDS011;9779;51.756;7.450;2022-10-31T10:15:08;33.73;;;15.17;;
19291;SDS011;9779;51.756;7.450;2022-10-31T10:18:17;30.07;;;14.43;;
19291;SDS011;9779;51.756;7.450;2022-10-31T10:28:43;31.00;;;16.07;;
19291;SDS011;9779;51.756;7.450;2022-10-31T10:31:16;33.57;;;15.53;;
19291;SDS011;9779;51.756;7.450;2022-10-31T10:34:01;24.20;;;16.03;;
19291;SDS011;9779;51.756;7.450;2022-10-31T10:36:51;26.70;;;15.53;;
19291;SDS011;9779;51.756;7.450;2022-10-31T10:39:41;35.03;;;17.00;;
19291;SDS011;9779;51.756;7.450;2022-10-31T10:42:11;34.73;;;16.70;;
19291;SDS011;9779;51.756;7.450;2022-10-31T10:44:57;29.63;;;17.73;;
19291;SDS011;9779;51.756;7.450;2022-10-31T10:47:43;32.70;;;17.80;;
19291;SDS011;9779;51.756;7.450;2022-10-31T10:52:51;36.23;;;19.07;;
19291;SDS011;9779;51.756;7.450;2022-10-31T10:55:27;25.03;;;16.47;;
19291;SDS011;9779;51.756;7.450;2022-10-31T11:00:31;38.80;;;19.43;;
19291;SDS011;9779;51.756;7.450;2022-10-31T11:03:00;29.40;;;17.83;;
19291;SDS011;9779;51.756;7.450;2022-10-31T11:08:10;31.07;;;18.80;;
19291;SDS011;9779;51.756;7.450;2022-10-31T11:10:36;32.90;;;18.70;;
19291;SDS011;9779;51.756;7.450;2022-10-31T11:13:05;40.53;;;19.13;;
19291;SDS011;9779;51.756;7.450;2022-10-31T11:15:39;42.13;;;19.07;;
19291;SDS011;9779;51.756;7.450;2022-10-31T11:18:20;32.17;;;18.60;;
19291;SDS011;9779;51.756;7.450;2022-10-31T11:20:56;29.47;;;17.67;;
19291;SDS011;9779;51.756;7.450;2022-10-31T11:23:24;32.27;;;19.00;;
19291;SDS011;9779;51.756;7.450;2022-10-31T11:25:58;44.67;;;19.87;;
19291;SDS011;9779;51.756;7.450;2022-10-31T11:28:29;34.20;;;18.23;;
19291;SDS011;9779;51.756;7.450;2022-10-31T11:30:58;37.10;;;18.20;;
19291;SDS011;9779;51.756;7.450;2022-10-31T11:33:26;33.87;;;17.70;;
19291;SDS011;9779;51.756;7.450;2022-10-31T11:36:16;41.77;;;18.47;;
19291;SDS011;9779;51.756;7.450;2022-10-31T11:38:48;31.37;;;17.67;;
19291;SDS011;9779;51.756;7.450;2022-10-31T11:41:18;28.63;;;17.23;;
19291;SDS011;9779;51.756;7.450;2022-10-31T11:44:00;37.00;;;18.47;;
19291;SDS011;9779;51.756;7.450;2022-10-31T11:49:02;34.80;;;18.77;;
19291;SDS011;9779;51.756;7.450;2022-10-31T11:51:31;35.80;;;18.83;;
19291;SDS011;9779;51.756;7.450;2022-10-31T11:53:59;42.37;;;19.87;;
19291;SDS011;9779;51.756;7.450;2022-10-31T11:56:27;41.63;;;17.97;;
19291;SDS011;9779;51.756;7.450;2022-10-31T11:59:03;30.23;;;18.13;;
19291;SDS011;9779;51.756;7.450;2022-10-31T12:01:39;33.73;;;17.87;;
19291;SDS011;9779;51.756;7.450;2022-10-31T12:04:11;37.13;;;19.03;;
19291;SDS011;9779;51.756;7.450;2022-10-31T12:06:41;37.10;;;18.20;;
19291;SDS011;9779;51.756;7.450;2022-10-31T12:11:45;27.13;;;17.10;;
19291;SDS011;9779;51.756;7.450;2022-10-31T12:14:21;29.17;;;16.80;;
19291;SDS011;9779;51.756;7.450;2022-10-31T12:17:13;37.33;;;17.77;;
19291;SDS011;9779;51.756;7.450;2022-10-31T12:27:59;34.80;;;14.63;;
19291;SDS011;9779;51.756;7.450;2022-10-31T12:30:30;32.33;;;16.40;;
19291;SDS011;9779;51.756;7.450;2022-10-31T12:39:36;30.73;;;15.00;;
19291;SDS011;9779;51.756;7.450;2022-10-31T12:41:58;23.10;;;14.37;;
19291;SDS011;9779;51.756;7.450;2022-10-31T12:44:55;23.50;;;15.10;;
19291;SDS011;9779;51.756;7.450;2022-10-31T12:50:17;31.07;;;15.40;;
19291;SDS011;9779;51.756;7.450;2022-10-31T12:58:35;27.57;;;16.07;;
19291;SDS011;9779;51.756;7.450;2022-10-31T13:01:10;30.30;;;14.87;;
19291;SDS011;9779;51.756;7.450;2022-10-31T13:03:53;19.27;;;13.73;;
19291;SDS011;9779;51.756;7.450;2022-10-31T13:06:27;27.07;;;14.90;;
19291;SDS011;9779;51.756;7.450;2022-10-31T13:08:59;26.80;;;13.60;;
19291;SDS011;9779;51.756;7.450;2022-10-31T13:11:29;31.40;;;14.63;;
19291;SDS011;9779;51.756;7.450;2022-10-31T13:14:07;22.23;;;13.90;;
19291;SDS011;9779;51.756;7.450;2022-10-31T13:16:44;20.17;;;13.00;;
19291;SDS011;9779;51.756;7.450;2022-10-31T13:27:23;21.47;;;13.40;;
19291;SDS011;9779;51.756;7.450;2022-10-31T13:30:16;25.23;;;13.03;;
19291;SDS011;9779;51.756;7.450;2022-10-31T13:32:52;28.83;;;12.60;;
19291;SDS011;9779;51.756;7.450;2022-10-31T13:35:36;28.50;;;12.87;;
19291;SDS011;9779;51.756;7.450;2022-10-31T13:38:25;25.67;;;12.70;;
19291;SDS011;9779;51.756;7.450;2022-10-31T13:48:55;25.00;;;13.17;;
19291;SDS011;9779;51.756;7.450;2022-10-31T13:51:25;24.53;;;12.87;;
19291;SDS011;9779;51.756;7.450;2022-10-31T13:56:21;22.93;;;13.17;;
19291;SDS011;9779;51.756;7.450;2022-10-31T14:01:34;21.43;;;12.50;;
19291;SDS011;9779;51.756;7.450;2022-10-31T14:06:38;28.83;;;13.13;;
19291;SDS011;9779;51.756;7.450;2022-10-31T14:09:30;29.10;;;13.20;;
19291;SDS011;9779;51.756;7.450;2022-10-31T14:12:03;33.13;;;14.40;;
19291;SDS011;9779;51.756;7.450;2022-10-31T14:14:47;28.97;;;16.47;;
19291;SDS011;9779;51.756;7.450;2022-10-31T14:17:17;30.00;;;15.27;;
19291;SDS011;9779;51.756;7.450;2022-10-31T14:19:56;25.33;;;14.20;;
19291;SDS011;9779;51.756;7.450;2022-10-31T14:22:42;29.63;;;14.10;;
19291;SDS011;9779;51.756;7.450;2022-10-31T14:25:27;38.63;;;14.80;;
19291;SDS011;9779;51.756;7.450;2022-10-31T14:27:54;34.20;;;13.97;;
19291;SDS011;9779;51.756;7.450;2022-10-31T14:30:22;28.27;;;13.67;;
19291;SDS011;9779;51.756;7.450;2022-10-31T14:32:50;30.40;;;14.50;;
19291;SDS011;9779;51.756;7.450;2022-10-31T14:44:18;30.17;;;14.37;;
19291;SDS011;9779;51.756;7.450;2022-10-31T14:52:45;29.90;;;16.17;;
19291;SDS011;9779;51.756;7.450;2022-10-31T14:55:14;30.13;;;15.17;;
19291;SDS011;9779;51.756;7.450;2022-10-31T14:57:44;33.47;;;15.63;;
19291;SDS011;9779;51.756;7.450;2022-10-31T15:00:22;27.80;;;15.50;;
19291;SDS011;9779;51.756;7.450;2022-10-31T15:02:58;29.37;;;15.50;;
19291;SDS011;9779;51.756;7.450;2022-10-31T15:05:48;29.07;;;14.53;;
19291;SDS011;9779;51.756;7.450;2022-10-31T15:08:31;27.13;;;15.67;;
19291;SDS011;9779;51.756;7.450;2022-10-31T15:11:03;40.67;;;16.70;;
19291;SDS011;9779;51.756;7.450;2022-10-31T15:13:48;30.87;;;15.67;;
19291;SDS011;9779;51.756;7.450;2022-10-31T15:16:23;28.07;;;15.13;;
19291;SDS011;9779;51.756;7.450;2022-10-31T15:18:52;29.03;;;15.60;;
19291;SDS011;9779;51.756;7.450;2022-10-31T15:21:23;25.33;;;14.80;;
19291;SDS011;9779;51.756;7.450;2022-10-31T15:23:51;33.13;;;16.30;;
19291;SDS011;9779;51.756;7.450;2022-10-31T15:26:19;29.60;;;15.77;;
19291;SDS011;9779;51.756;7.450;2022-10-31T15:28:57;24.77;;;15.73;;
19291;SDS011;9779;51.756;7.450;2022-10-31T15:31:24;30.07;;;15.77;;
19291;SDS011;9779;51.756;7.450;2022-10-31T15:33:49;29.47;;;16.27;;
19291;SDS011;9779;51.756;7.450;2022-10-31T15:36:23;30.87;;;15.73;;
19291;SDS011;9779;51.756;7.450;2022-10-31T15:38:50;26.93;;;16.30;;
19291;SDS011;9779;51.756;7.450;2022-10-31T15:41:33;31.73;;;16.70;;
19291;SDS011;9779;51.756;7.450;2022-10-31T15:44:05;37.97;;;18.00;;
19291;SDS011;9779;51.756;7.450;2022-10-31T15:46:53;39.60;;;16.80;;
19291;SDS011;9779;51.756;7.450;2022-10-31T15:49:40;19.50;;;10.57;;
19291;SDS011;9779;51.756;7.450;2022-10-31T15:52:15;13.50;;;9.17;;
19291;SDS011;9779;51.756;7.450;2022-10-31T15:54:48;19.77;;;10.60;;
19291;SDS011;9779;51.756;7.450;2022-10-31T15:57:17;17.87;;;11.47;;
19291;SDS011;9779;51.756;7.450;2022-10-31T15:59:45;17.03;;;10.93;;
19291;SDS011;9779;51.756;7.450;2022-10-31T16:02:13;16.23;;;12.37;;
19291;SDS011;9779;51.756;7.450;2022-10-31T16:04:49;21.27;;;13.40;;
19291;SDS011;9779;51.756;7.450;2022-10-31T16:07:18;16.67;;;12.33;;
19291;SDS011;9779;51.756;7.450;2022-10-31T16:10:00;18.07;;;13.10;;
19291;SDS011;9779;51.756;7.450;2022-10-31T16:12:36;20.80;;;13.40;;
19291;SDS011;9779;51.756;7.450;2022-10-31T16:15:15;26.73;;;14.07;;
19291;SDS011;9779;51.756;7.450;2022-10-31T16:17:43;25.87;;;15.37;;
19291;SDS011;9779;51.756;7.450;2022-10-31T16:20:21;23.70;;;15.90;;
19291;SDS011;9779;51.756;7.450;2022-10-31T16:22:51;29.10;;;16.37;;
19291;SDS011;9779;51.756;7.450;2022-10-31T16:25:25;39.10;;;18.27;;
19291;SDS011;9779;51.756;7.450;2022-10-31T16:27:52;28.97;;;19.33;;
19291;SDS011;9779;51.756;7.450;2022-10-31T16:33:02;31.87;;;17.70;;
19291;SDS011;9779;51.756;7.450;2022-10-31T16:35:36;29.97;;;18.40;;
19291;SDS011;9779;51.756;7.450;2022-10-31T16:38:03;34.37;;;19.03;;
19291;SDS011;9779;51.756;7.450;2022-10-31T16:40:29;30.27;;;18.50;;
19291;SDS011;9779;51.756;7.450;2022-10-31T16:42:56;35.47;;;19.10;;
19291;SDS011;9779;51.756;7.450;2022-10-31T16:45:25;41.57;;;20.80;;
19291;SDS011;9779;51.756;7.450;2022-10-31T16:47:52;25.60;;;17.23;;
19291;SDS011;9779;51.756;7.450;2022-10-31T16:50:25;29.83;;;18.03;;
19291;SDS011;9779;51.756;7.450;2022-10-31T16:52:52;45.37;;;20.10;;
19291;SDS011;9779;51.756;7.450;2022-10-31T16:55:18;30.33;;;17.53;;
19291;SDS011;9779;51.756;7.450;2022-10-31T16:57:46;28.60;;;18.97;;
19291;SDS011;9779;51.756;7.450;2022-10-31T17:00:14;27.13;;;19.10;;
19291;SDS011;9779;51.756;7.450;2022-10-31T17:02:41;30.73;;;18.00;;
19291;SDS011;9779;51.756;7.450;2022-10-31T17:05:15;31.57;;;20.03;;